CheckWX is a tool to help pilots better visualize weather data.  It is not intended as a substitute for an official pre-flight weather briefing.

09:19:05 UTC

KSSF TAF
Stinson Municipal Airport
San Antonio, Texas, USA
KSSF 120520Z 1206/1306 07006KT P6SM SKC FM120800 05004KT P6SM SCT030 FM121600 18006KT P6SM SCT035 FM121800 18003KT P6SM FEW250

Dec-12@
06:00 UTC

Dec-12 @ 06:00 UTC

Dec-12@
08:00 UTC

Dec-12 @ 08:00 UTC

KSSF 120520Z 1206/1306 07006KT P6SM SKC

Expired

Wind
  • 070° at 6 KTS
Cloud Levels
  • Clear skies

Dec-12@
08:00 UTC

Dec-12 @ 08:00 UTC

Dec-12@
16:00 UTC

Dec-12 @ 16:00 UTC

FM120800 05004KT P6SM SCT030

From

From Standard forecast or significant change

Wind
  • 050° at 4 KTS
Cloud Levels
  • Scattered at 3,000' AGL

Dec-12@
16:00 UTC

Dec-12 @ 16:00 UTC

Dec-12@
18:00 UTC

Dec-12 @ 18:00 UTC

FM121600 18006KT P6SM SCT035

From

From Standard forecast or significant change

Wind
  • 180° at 6 KTS
Cloud Levels
  • Scattered at 3,500' AGL

Dec-12@
18:00 UTC

Dec-12 @ 18:00 UTC

Dec-13@
06:00 UTC

Dec-13 @ 06:00 UTC

FM121800 18003KT P6SM FEW250

From

From Standard forecast or significant change

Wind
  • 180° at 3 KTS
Cloud Levels
  • Few at 25,000' AGL